MV Ocean Fresh — LAEZ7 — position and weather

sailwx.info

Track history (hours):
 
Tides and Currents Weather Stations Pressure Air Temp Water Temp Dewpoint Dewpoint Depression Visibility Wind Speed Wind Dir Waves Ship Positions

MV Ocean Fresh

Last reported at 2016-Oct-31 22:33 UTC. Time now 2016-Dec-08 02:14 UTC.
Position N 20°01' W 017°13'.
Warning: this ship's position is 37 days out of date.

Length 115 m; draft 6.5 m.

Type: Cargo ship. MMSI: 259758000.

Date/timePositionNaut miles runAvg speedWind from/ knotsBaromVisibWave heightAir tempDewpointWater temp
2016-Oct-31 22:33N 20°01' W 017°13'17 8.3
2016-Oct-31 20:33N 20°18' W 017°12'9 8.8
2016-Oct-31 19:33N 20°26' W 017°10'9 9.0
2016-Oct-31 18:33N 20°35' W 017°08'8 1.6
2016-Oct-31 13:23N 20°43' W 017°10'1 0.3
2016-Oct-31 08:22N 20°42' W 017°09'1 0.4
2016-Oct-31 06:33N 20°42' W 017°08'1 0.3
2016-Oct-31 03:33N 20°42' W 017°09'  
2016-Oct-28 23:33N 27°53' W 015°17'17 8.2
2016-Oct-28 21:28N 28°09' W 015°25'0 0.0
2016-Oct-28 19:31N 28°09' W 015°25'0 0.0
2016-Oct-28 16:34N 28°09' W 015°25'0 0.0
2016-Oct-28 15:33N 28°09' W 015°25'0 0.0
2016-Oct-28 14:33N 28°09' W 015°25'0 0.0
2016-Oct-28 09:26N 28°09' W 015°25'0 0.0
2016-Oct-28 08:29N 28°09' W 015°25'0 0.0
2016-Oct-28 07:32N 28°09' W 015°25'0 0.0
2016-Oct-28 00:23N 28°09' W 015°25'0 0.0
2016-Oct-27 23:23N 28°09' W 015°25'0 0.0
2016-Oct-27 21:26N 28°09' W 015°25'0 0.0
2016-Oct-27 17:29N 28°09' W 015°25'0 0.0
2016-Oct-27 15:32N 28°09' W 015°25'0 0.0
2016-Oct-27 11:32N 28°09' W 015°25'0 0.0
2016-Oct-27 09:08N 28°09' W 015°25'0 0.0
2016-Oct-27 04:29N 28°09' W 015°25'0 0.0
2016-Oct-27 03:26N 28°09' W 015°25'0 0.0
2016-Oct-27 00:32N 28°09' W 015°25'0 0.0
2016-Oct-26 21:32N 28°09' W 015°25'0 0.0
2016-Oct-26 16:26N 28°09' W 015°25'0 0.0
2016-Oct-26 15:29N 28°09' W 015°25'0 0.0
2016-Oct-26 14:29N 28°09' W 015°25'0 0.0
2016-Oct-26 12:32N 28°09' W 015°25'0 0.0
2016-Oct-26 11:29N 28°09' W 015°25'0 0.0
2016-Oct-26 10:32N 28°09' W 015°25'0 0.0
2016-Oct-26 09:32N 28°09' W 015°25'0 0.0
2016-Oct-26 08:20N 28°09' W 015°25'0 0.0
2016-Oct-26 04:23N 28°09' W 015°25'0 0.0
2016-Oct-26 03:26N 28°09' W 015°25'0 0.0
2016-Oct-25 23:29N 28°09' W 015°25'0 0.0
2016-Oct-25 21:32N 28°09' W 015°25'0 0.0
2016-Oct-25 20:32N 28°09' W 015°25'0 0.0
2016-Oct-25 17:32N 28°09' W 015°25'0 0.0
2016-Oct-25 16:32N 28°09' W 015°25'0 0.0
2016-Oct-25 15:20N 28°09' W 015°25'0 0.0
2016-Oct-25 13:26N 28°09' W 015°25'0 0.0
2016-Oct-25 12:26N 28°09' W 015°25'0 0.0
2016-Oct-25 10:29N 28°09' W 015°25'0 0.0
2016-Oct-25 07:32N 28°09' W 015°25'0 0.0
2016-Oct-25 05:32N 28°09' W 015°25'0 0.0
2016-Oct-25 04:32N 28°09' W 015°25'0 0.0
2016-Oct-25 03:20N 28°09' W 015°25'0 0.0
2016-Oct-25 02:23N 28°09' W 015°25'0 0.0
2016-Oct-24 21:26N 28°09' W 015°25'0 0.0
2016-Oct-24 20:26N 28°09' W 015°25'0 0.0
2016-Oct-24 18:29N 28°09' W 015°25'9 1.8
2016-Oct-24 13:33N 28°03' W 015°18'9 0.3
2016-Oct-23 05:34N 28°09' W 015°25'0 0.0
2016-Oct-23 03:25N 28°09' W 015°25'0 0.0
2016-Oct-23 02:27N 28°09' W 015°25'0 0.0
2016-Oct-22 23:30N 28°09' W 015°25'0 0.0
2016-Oct-22 17:33N 28°09' W 015°25'0 0.0
2016-Oct-22 16:33N 28°09' W 015°25'0 0.0
2016-Oct-22 15:33N 28°09' W 015°25'0 0.0
2016-Oct-22 13:24N 28°09' W 015°25'0 0.0
2016-Oct-22 10:27N 28°09' W 015°25'0 0.0
2016-Oct-22 08:30N 28°09' W 015°25'0 0.0
2016-Oct-22 07:30N 28°09' W 015°25'0 0.0
2016-Oct-22 04:33N 28°09' W 015°25'0 0.0
2016-Oct-22 00:33N 28°09' W 015°25'0 0.0
2016-Oct-21 23:24N 28°09' W 015°25'  
Track history (hours):
 
Tides and Currents Weather Stations Pressure Air Temp Water Temp Dewpoint Dewpoint Depression Visibility Wind Speed Wind Dir Waves Ship Positions

MV Ocean Fresh

Last reported at 2016-Oct-31 22:33 UTC. Time now 2016-Dec-08 02:14 UTC.
Position N 20°01' W 017°13'.
Warning: this ship's position is 37 days out of date.

Length 115 m; draft 6.5 m.

Type: Cargo ship. MMSI: 259758000.

Date/timePositionNaut miles runAvg speedWind from/ knotsBaromVisibWave heightAir tempDewpointWater temp
2016-Oct-31 22:33N 20°01' W 017°13'17 8.3
2016-Oct-31 20:33N 20°18' W 017°12'9 8.8
2016-Oct-31 19:33N 20°26' W 017°10'9 9.0
2016-Oct-31 18:33N 20°35' W 017°08'8 1.6
2016-Oct-31 13:23N 20°43' W 017°10'1 0.3
2016-Oct-31 08:22N 20°42' W 017°09'1 0.4
2016-Oct-31 06:33N 20°42' W 017°08'1 0.3
2016-Oct-31 03:33N 20°42' W 017°09'  
2016-Oct-28 23:33N 27°53' W 015°17'17 8.2
2016-Oct-28 21:28N 28°09' W 015°25'0 0.0
2016-Oct-28 19:31N 28°09' W 015°25'0 0.0
2016-Oct-28 16:34N 28°09' W 015°25'0 0.0
2016-Oct-28 15:33N 28°09' W 015°25'0 0.0
2016-Oct-28 14:33N 28°09' W 015°25'0 0.0
2016-Oct-28 09:26N 28°09' W 015°25'0 0.0
2016-Oct-28 08:29N 28°09' W 015°25'0 0.0
2016-Oct-28 07:32N 28°09' W 015°25'0 0.0
2016-Oct-28 00:23N 28°09' W 015°25'0 0.0
2016-Oct-27 23:23N 28°09' W 015°25'0 0.0
2016-Oct-27 21:26N 28°09' W 015°25'0 0.0
2016-Oct-27 17:29N 28°09' W 015°25'0 0.0
2016-Oct-27 15:32N 28°09' W 015°25'0 0.0
2016-Oct-27 11:32N 28°09' W 015°25'0 0.0
2016-Oct-27 09:08N 28°09' W 015°25'0 0.0
2016-Oct-27 04:29N 28°09' W 015°25'0 0.0
2016-Oct-27 03:26N 28°09' W 015°25'0 0.0
2016-Oct-27 00:32N 28°09' W 015°25'0 0.0
2016-Oct-26 21:32N 28°09' W 015°25'0 0.0
2016-Oct-26 16:26N 28°09' W 015°25'0 0.0
2016-Oct-26 15:29N 28°09' W 015°25'0 0.0
2016-Oct-26 14:29N 28°09' W 015°25'0 0.0
2016-Oct-26 12:32N 28°09' W 015°25'0 0.0
2016-Oct-26 11:29N 28°09' W 015°25'0 0.0
2016-Oct-26 10:32N 28°09' W 015°25'0 0.0
2016-Oct-26 09:32N 28°09' W 015°25'0 0.0
2016-Oct-26 08:20N 28°09' W 015°25'0 0.0
2016-Oct-26 04:23N 28°09' W 015°25'0 0.0
2016-Oct-26 03:26N 28°09' W 015°25'0 0.0
2016-Oct-25 23:29N 28°09' W 015°25'0 0.0
2016-Oct-25 21:32N 28°09' W 015°25'0 0.0
2016-Oct-25 20:32N 28°09' W 015°25'0 0.0
2016-Oct-25 17:32N 28°09' W 015°25'0 0.0
2016-Oct-25 16:32N 28°09' W 015°25'0 0.0
2016-Oct-25 15:20N 28°09' W 015°25'0 0.0
2016-Oct-25 13:26N 28°09' W 015°25'0 0.0
2016-Oct-25 12:26N 28°09' W 015°25'0 0.0
2016-Oct-25 10:29N 28°09' W 015°25'0 0.0
2016-Oct-25 07:32N 28°09' W 015°25'0 0.0
2016-Oct-25 05:32N 28°09' W 015°25'0 0.0
2016-Oct-25 04:32N 28°09' W 015°25'0 0.0
2016-Oct-25 03:20N 28°09' W 015°25'0 0.0
2016-Oct-25 02:23N 28°09' W 015°25'0 0.0
2016-Oct-24 21:26N 28°09' W 015°25'0 0.0
2016-Oct-24 20:26N 28°09' W 015°25'0 0.0
2016-Oct-24 18:29N 28°09' W 015°25'9 1.8
2016-Oct-24 13:33N 28°03' W 015°18'9 0.3
2016-Oct-23 05:34N 28°09' W 015°25'0 0.0
2016-Oct-23 03:25N 28°09' W 015°25'0 0.0
2016-Oct-23 02:27N 28°09' W 015°25'0 0.0
2016-Oct-22 23:30N 28°09' W 015°25'0 0.0
2016-Oct-22 17:33N 28°09' W 015°25'0 0.0
2016-Oct-22 16:33N 28°09' W 015°25'0 0.0
2016-Oct-22 15:33N 28°09' W 015°25'0 0.0
2016-Oct-22 13:24N 28°09' W 015°25'0 0.0
2016-Oct-22 10:27N 28°09' W 015°25'0 0.0
2016-Oct-22 08:30N 28°09' W 015°25'0 0.0
2016-Oct-22 07:30N 28°09' W 015°25'0 0.0
2016-Oct-22 04:33N 28°09' W 015°25'0 0.0
2016-Oct-22 00:33N 28°09' W 015°25'0 0.0
2016-Oct-21 23:24N 28°09' W 015°25'  

Dump ship's entire track history